Tiempo atmosférico en la estación meteorológica de Valencia De Alcántara, Cáceres (445 m.)



Fecha
DESCASC
Temp. máxima en grados centígrados (hora)
DESCASC
Temp. mínima en grados centígrados (hora)
DESCASC
Temp. media en grados centígrados
DESCASC
Racha de viento máxima en m/sg (hora)
DESCASC
Velocidad máxima media en intervalos de 10 minutos(hora)
DESCASC
Precipitaciones diarias en mm
DESCASC
Precipitaciones de 00:00 a 06:00 en mm
DESCASC
Precipitaciones de 06:00 a 12:00 en mm
DESCASC
Precipitaciones de 12:00 a 18:00 en mm
DESCASC
Precipitaciones de 18:00 a 24:00 en mm
DESCASC
16-06-2019 30 (17:40) 11.1 (07:10) 20.6 10.28 (19:10) 6.39 (19:10) 0 0 0 0 0
15-06-2019 26 (18:30) 9.5 (07:30) 17.8 8.61 (22:50) 4.72 (23:00) 0 0 0 0 0
14-06-2019 20.3 (16:00) 8.9 (07:20) 14.6 13.33 (15:40) 7.5 (15:40) 0 0 0 0 0
13-06-2019 25.3 (17:40) 7.6 (00:00) 16.4 11.67 (22:30) 6.67 (22:30) 0 0 0 0 0
12-06-2019 26.6 (17:20) 9.4 (00:00) 18 12.22 (22:10) 6.39 (22:10) 0 0 0 0 0
11-06-2019 25.2 (18:20) 11.5 (00:00) 18.4 14.72 (15:50) 8.06 (14:10) 0 0 0 0 0
10-06-2019 26.5 (17:20) 10.7 (00:00) 18.6 12.5 (21:10) 6.67 (20:40) 0 0 0 0 0
09-06-2019 24.9 (17:20) 8 (00:00) 16.4 12.78 (20:10) 6.94 (20:00) 0 0 0 0 0
08-06-2019 26.8 (18:10) 7.6 (00:00) 17.2 10.28 (21:40) 6.11 (20:50) 0 0 0 0 0
07-06-2019 21.9 (18:40) 9.4 (00:00) 15.6 9.17 (01:20) 5.28 (01:20) 0 0 0 0 0
06-06-2019 21.3 (16:50) 9.6 (00:00) 15.4 15.83 (18:00) 8.89 (17:00) 1.2 0 0 0 1.2
05-06-2019 21 (16:40) 10 (00:00) 15.5 12.5 (16:50) 7.5 (00:10) 0 0 0 0 0
04-06-2019 23.5 (15:20) 13.1 (00:00) 18.3 13.89 (22:10) 8.33 (16:50) 0 0 0 0 0
03-06-2019 30.5 (17:20) 16.9 (00:00) 23.7 11.11 (17:50) 6.11 (17:50) 0 0 0 0 0
02-06-2019 35.1 (17:40) 17.3 (00:00) 26.2 12.22 (18:30) 7.22 (18:40) 0 0 0 0 0
01-06-2019 36 (17:30) 18.2 (00:00) 27.1 6.67 (18:00) 3.61 (18:50) 0 0 0 0 0
31-05-2019 34.7 (18:40) 15.8 (00:00) 25.3 8.61 (18:10) 3.89 (13:50) 0 0 0 0 0
30-05-2019 32.7 (18:30) 15.2 (00:00) 24 11.67 (12:10) 6.67 (11:30) 0 0 0 0 0
29-05-2019 30.3 (18:30) 15.8 (00:00) 23 11.39 (03:10) 6.67 (11:00) 0 0 0 0 0
28-05-2019 31.2 (17:10) 14.1 (00:00) 22.7 11.39 (17:50) 6.94 (20:20) 0 0 0 0 0
27-05-2019 31.5 (15:40) 14.8 (00:00) 23.2 13.89 (17:40) 6.67 (17:00) 0 0 0 0 0
26-05-2019 31.4 (18:40) 12.4 (00:00) 21.9 13.61 (18:50) 6.67 (18:50) 0 0 0 0 0
25-05-2019 28.4 (19:40) 13.1 (00:00) 20.8 11.67 (13:20) 6.67 (20:20) 0 0 0 0 0
24-05-2019 27.9 (17:30) 12.2 (00:00) 20 12.78 (13:00) 7.5 (10:00) 0 0 0 0 0
23-05-2019 27.5 (16:40) 11.2 (00:00) 19.3 11.67 (18:30) 6.67 (18:40) 0 0 0 0 0
22-05-2019 28.6 (18:00) 11.3 (00:00) 20 10.28 (21:50) 5.83 (21:50) 0 0 0 0 0
21-05-2019 25.4 (17:10) 9.1 (06:30) 17.3 8.61 (19:30) 5 (19:00) 0 0 0 0 0

Gráficas

Temp. máximas Temp. mínimas Temp. medias Precipitaciones Rachas de viento máximas Velocidades máximas media en intervalos de 10 minutos

Datos horarios

Fecha y hora oficial Temperatura (ºC) Velocidad del viento (km/h) Dirección del viento Racha (km/h) Dirección de racha Precipitación (mm) Presión (hPa) Tendencia (hPa) Humedad (%)
2019-06-19 23:00:00 19.9 8 Oeste 22 Sudoeste 0 964.1 0.4 65
2019-06-19 22:00:00 21.2 13 Oeste 28 Oeste 0 963.8 0.1 58
2019-06-19 21:00:00 22.5 15 Sudoeste 28 Sudoeste 0 963.7 -0.4 52
2019-06-19 20:00:00 23.2 16 Sudoeste 32 Sudoeste 0 963.7 -0.6 49
2019-06-19 19:00:00 24.8 18 Sudoeste 32 Sudoeste 0 963.7 -1 45
2019-06-19 18:00:00 23.6 16 Sudoeste 32 Sudoeste 0 964.1 -0.7 50
2019-06-19 17:00:00 23.8 11 Sudoeste 25 Sudoeste 0 964.3 -1.3 49
2019-06-19 16:00:00 23 12 Sudoeste 29 Sudeste 0 964.7 -0.8 52
2019-06-19 15:00:00 23 6 Noroeste 20 Sudoeste 0 964.8 -0.3 54
2019-06-19 14:00:00 19.8 14 Sudoeste 30 Sudoeste 0 965.6 0.7 70
2019-06-19 13:00:00 20.6 10 Sur 25 Sur 0 965.5 0.7 62
2019-06-19 12:00:00 20.7 8 Sudoeste 21 Sudoeste 0 965.1 0.6 61
2019-06-19 11:00:00 19.1 12 Sudoeste 22 Sudoeste 0 964.9 0.6 67
2019-06-19 10:00:00 17.8 8 Sudoeste 19 Oeste 0 964.8 0.9 75
2019-06-19 09:00:00 17.1 9 Sudoeste 18 Sudoeste 0 964.5 0.6 82
2019-06-19 08:00:00 17 8 Sudoeste 13 Sudoeste 0 964.3 0.4 80
2019-06-19 07:00:00 16.9 6 Sur 17 Sudoeste 0 963.9 0.3 82
2019-06-19 06:00:00 16.8 7 Sudoeste 15 Sudoeste 0 963.9 -0.1 84
2019-06-19 05:00:00 16.4 4 Sudoeste 17 Sudoeste 0 963.9 -0.1 87
2019-06-19 04:00:00 17.1 5 Sudoeste 15 Sudoeste 0 963.6 -0.4 80
2019-06-19 03:00:00 16.8 4 Sur 32 Sudoeste 0 964 -0.2 79
2019-06-19 02:00:00 17 15 Sudoeste 30 Sudoeste 0 964 0.2 78
2019-06-19 01:00:00 17.3 17 Sur 30 Sur 0 964 0.6 74
2019-06-19 00:00:00 18.4 10 Sudoeste 28 Sudoeste 0 964.2 1.2 67
2019-06-18 23:00:00 19.3 12 Sudoeste 32 Sudoeste 0 963.8 1.2 59
2019-06-18 22:00:00 20.6 16 Sudoeste 36 Sudoeste 0 963.4 1 50
2019-06-18 21:00:00 22.7 19 Sudoeste 43 Sur 0 963 0.5 44
2019-06-18 20:00:00 24.2 18 Sudoeste 42 Sudoeste 0 962.6 -0.1 44
2019-06-18 19:00:00 24.2 20 Sur 37 Sudoeste 0 962.4 -0.6 45
2019-06-18 18:00:00 23.6 19 Sudoeste 36 Sudoeste 0 962.5 -1 49
2019-06-18 17:00:00 22.7 14 Sudoeste 37 Sur 0 962.7 -0.9 56
2019-06-18 16:00:00 22.3 14 Sur 44 Sur 0 963 -1 57
2019-06-18 15:00:00 19.7 12 Sur 41 Sudoeste 0 963.5 0 77
2019-06-18 14:00:00 22.2 22 Sur 42 Sudoeste 0 963.6 0.5 55
2019-06-18 13:00:00 18.6 18 Sur 31 Sur 0 964 1.2 77
2019-06-18 12:00:00 20.2 14 Sur 32 Sur 0 963.5 0.8 66
2019-06-18 11:00:00 19.3 18 Sur 39 Sur 0 963.1 0.4 69
2019-06-18 10:00:00 18.8 15 Sudoeste -- -- 0 962.8 0.4 68
2019-06-18 09:00:00 15.2 6 Nordeste 17 Nordeste 0 962.7 0.6 61
2019-06-18 08:00:00 12.4 6 Norte 9 Este 0 962.7 0.7 71
2019-06-18 07:00:00 12.2 5 Nordeste 10 Este 0 962.4 0.3 70
2019-06-18 06:00:00 12.2 8 Este 11 Nordeste 0 962.1 -0.1 62
2019-06-18 05:00:00 13.2 4 Norte 8 Nordeste 0 962 -0.3 61
2019-06-18 04:00:00 14.6 3 Nordeste 10 Noroeste 0 962.1 -0.5 52
2019-06-18 03:00:00 17 5 Sudoeste 11 Sudoeste 0 962.2 -0.6 44
2019-06-18 02:00:00 18 4 Sudeste 17 Oeste 0 962.3 -0.1 46
2019-06-18 01:00:00 19.3 6 Oeste 16 Oeste 0 962.6 0.8 43
2019-06-18 00:00:00 20.2 7 Oeste 28 Oeste 0 962.8 1.3 43
2019-06-17 23:00:00 22.3 12 Sudoeste 30 Sudoeste 0 962.4 0.4 42
2019-06-17 22:00:00 24.5 14 Sudoeste 28 Oeste 0 961.8 -0.1 34
2019-06-17 21:00:00 27 7 Sur 21 Oeste 0 961.5 -0.8 18
2019-06-17 20:00:00 27.7 11 Sudoeste 32 Sudoeste 0 962 -0.8 17
2019-06-17 19:00:00 28.5 17 Sudoeste 29 Sudoeste 0 961.9 -1.4 15
2019-06-17 18:00:00 29.7 9 Sudoeste 32 Sudeste 0 962.3 -1.4 17
2019-06-17 17:00:00 28.7 15 Sur 34 Sur 0 962.8 -1.6 16
2019-06-17 16:00:00 28.6 15 Sur 35 Sur 0 963.3 -1.4 20
2019-06-17 15:00:00 28.5 13 Sur 30 Sudeste 0 963.7 -1.3 22
2019-06-17 14:00:00 27 12 Sur 29 Sudeste 0 964.4 -0.8 27
2019-06-17 13:00:00 25.5 -- -- -- -- 0 964.7 -0.8 33
2019-06-17 12:00:00 24.1 12 Sudeste 30 Sudeste 0 965 -0.2 35
2019-06-17 11:00:00 23.3 10 Sudeste 22 Sudeste 0 965.2 0.2 39
2019-06-17 10:00:00 20.8 4 Noroeste 12 Sudoeste 0 965.5 0.7 43
2019-06-17 09:00:00 17.4 2 Oeste 5 Noroeste 0 965.2 0.2 57
2019-06-17 08:00:00 12.1 3 Sur 10 Sudoeste 0 965 -0.3 72
2019-06-17 07:00:00 11.5 6 Sudoeste 9 Sudoeste 0 964.8 -0.7 72
2019-06-17 06:00:00 12.3 5 Sur 10 Sudeste 0 965 -0.7 69
2019-06-17 05:00:00 13.7 7 Sudoeste 12 Sudoeste 0 965.3 -0.5 66
2019-06-17 04:00:00 14.9 6 Sur 9 Sur 0 965.5 -0.5 64
2019-06-17 03:00:00 15.7 3 Sur 7 Sudoeste 0 965.7 -0.3 64
2019-06-17 02:00:00 16.7 3 Sudoeste 8 Sudoeste 0 965.8 0.2 61
2019-06-17 01:00:00 17.7 5 Oeste 21 Oeste 0 966 1.2 61
2019-06-17 00:00:00 19 11 Sudoeste 27 Oeste 0 966 1.4 57
2019-06-16 23:00:00 20.5 14 Oeste 35 Oeste 0 965.6 1.3 53
2019-06-16 22:00:00 24.5 12 Oeste 27 Oeste 0 964.8 0.6 27
2019-06-16 21:00:00 26.7 17 Oeste 33 Sudoeste 0 964.6 0.5 24
2019-06-16 20:00:00 28.1 17 Sudoeste 37 Oeste 0 964.3 -0.2 21
2019-06-16 19:00:00 28.7 17 Sudoeste 35 Sudoeste 0 964.2 -0.6 21
2019-06-16 18:00:00 29.2 18 Sudoeste 29 Sudoeste 0 964.1 -1.2 21
2019-06-16 17:00:00 29.7 8 Sudoeste 34 Sudoeste 0 964.5 -1.1 20
2019-06-16 16:00:00 28.2 12 Sudoeste 23 Sudoeste 0 964.8 -1.3 21
2019-06-16 15:00:00 28.5 10 Sur 29 Sur 0 965.3 -1.2 21
2019-06-16 14:00:00 27 9 Sudeste 29 Este 0 965.6 -1 23
2019-06-16 13:00:00 26.1 7 Sudeste 20 Sudeste 0 966.1 -0.4 27
2019-06-16 12:00:00 23.3 2 Sur 8 Este 0 966.5 0.2 31
2019-06-16 11:00:00 20.9 4 Este 9 Este 0 966.6 0.6 40
2019-06-16 10:00:00 19 3 Noroeste 8 Noroeste 0 966.5 0.6 50
2019-06-16 09:00:00 16.1 3 Sudoeste 9 Sur 0 966.3 0.7 60
2019-06-16 08:00:00 11.6 6 Sudoeste 10 Sur 0 966 0.1 74
2019-06-16 07:00:00 11.4 7 Sudoeste 10 Sudoeste 0 965.9 -0.1 73
2019-06-16 06:00:00 12.2 6 Sudoeste 10 Sudoeste 0 965.6 -0.7 71
2019-06-16 05:00:00 12.9 6 Sudoeste 10 Sudoeste 0 965.9 -1.1 68
2019-06-16 04:00:00 13.3 6 Sudoeste 9 Sudoeste 0 966 -1.3 67
2019-06-16 03:00:00 14.2 6 Sudoeste 13 Sudoeste 0 966.3 -1.1 63
2019-06-16 02:00:00 15.1 8 Sudoeste 14 Sudoeste 0 967 0 61
2019-06-16 01:00:00 16.2 7 Oeste 14 Sudoeste 0 967.3 1 57
2019-06-16 00:00:00 17 9 Oeste 27 Oeste 0 967.4 1.1 55
2019-06-15 23:00:00 18.6 17 Oeste 31 Oeste 0 967 0.8 52
2019-06-15 22:00:00 22.2 10 Oeste 17 Oeste 0 966.3 0 31
2019-06-15 21:00:00 24.9 8 Oeste 21 Oeste 0 966.3 -0.5 23
2019-06-15 20:00:00 24.8 5 Norte 23 Oeste 0 966.2 -1.1 24
2019-06-15 19:00:00 25.4 8 Oeste 30 Noroeste 0 966.3 -1.5 24
2019-06-15 18:00:00 24.9 7 Noroeste 18 Sudoeste 0 966.8 -1.4 24
2019-06-15 17:00:00 24 9 Noroeste 24 Noroeste 0 967.3 -1.4 26
2019-06-15 16:00:00 23.6 6 Oeste 21 Oeste 0 967.8 -1.2 27
2019-06-15 15:00:00 22.1 9 Norte 21 Noroeste 0 968.2 -0.9 30
2019-06-15 14:00:00 22.1 6 Nordeste 20 Noroeste 0 968.7 -0.1 31
2019-06-15 13:00:00 19.6 9 Norte 21 Noroeste 0 969 0.1 37
2019-06-15 12:00:00 18.3 7 Norte 18 Norte 0 969.1 0.7 43
2019-06-15 11:00:00 16.7 6 Norte 15 Nordeste 0 968.8 0.9 52
2019-06-15 10:00:00 14.3 7 Norte 15 Noroeste 0 968.9 1.3 65
2019-06-15 09:00:00 12.1 6 Norte 10 Norte 0 968.4 1 77
2019-06-15 08:00:00 9.8 0 Calma 8 Este 0 967.9 0.3 82
2019-06-15 07:00:00 10.5 4 Oeste 16 Sudoeste 0 967.6 -0.1 76
2019-06-15 06:00:00 10.2 6 Sudoeste 19 Oeste 0 967.4 -0.3 83
2019-06-15 05:00:00 11 9 Sudoeste 21 Sudoeste 0 967.6 -0.3 81
2019-06-15 04:00:00 11.5 12 Oeste 26 Sudoeste 0 967.7 -0.2 78
2019-06-15 03:00:00 12.2 11 Sudoeste 23 Sudoeste 0 967.7 0.2 73
2019-06-15 02:00:00 12.8 11 Oeste 22 Oeste 0 967.9 0.8 69
2019-06-15 01:00:00 13.3 12 Oeste 25 Oeste 0 967.9 1.5 66
2019-06-15 00:00:00 14.2 14 Oeste 23 Oeste 0 967.5 1.7 60
2019-06-14 23:00:00 15 10 Sudoeste 23 Oeste 0 967.1 1.9 56
2019-06-14 22:00:00 15.9 12 Sudoeste 33 Oeste 0 966.4 1.7 51
2019-06-14 21:00:00 18.1 15 Oeste 35 Oeste 0 965.8 1.2 41
2019-06-14 20:00:00 18.5 21 Oeste 44 Sudoeste 0 965.2 0.8 41
2019-06-14 19:00:00 18.3 19 Oeste 38 Oeste 0 964.7 0.4 43
2019-06-14 18:00:00 18.9 18 Sudoeste 42 Oeste 0 964.6 0.4 42
2019-06-14 17:00:00 18.3 24 Oeste 44 Sudoeste 0 964.4 0.4 44
2019-06-14 16:00:00 19.8 23 Oeste 48 Oeste 0 964.3 0.6 34
2019-06-14 15:00:00 17.6 22 Oeste 46 Sudoeste 0 964.2 0.9 43
2019-06-14 14:00:00 18.8 23 Oeste 44 Oeste 0 964 1.4 37
2019-06-14 13:00:00 17.8 21 Oeste -- -- 0 963.7 1.7 40
2019-06-14 12:00:00 16.6 17 Oeste 34 Oeste 0 963.3 1.8 44
2019-06-14 11:00:00 15.2 19 Oeste 30 Sudoeste 0 962.6 1.6 47
2019-06-14 10:00:00 13.6 14 Oeste 27 Oeste 0 962 1.4 54
2019-06-14 09:00:00 12 15 Oeste 26 Oeste 0 961.5 1.5 61
2019-06-14 08:00:00 9.7 12 Sudoeste 24 Sudoeste 0 961 0.6 72
2019-06-14 07:00:00 9 13 Sudoeste 27 Sudoeste 0 960.6 0.2 79
2019-06-14 06:00:00 9.2 14 Sudoeste 26 Sudoeste 0 960 -0.4 79
2019-06-14 05:00:00 9.7 15 Sudoeste 25 Sudoeste 0 960.4 -0.4 76
2019-06-14 04:00:00 9.8 6 Sudoeste 26 Sudoeste 0 960.4 -0.3 76
2019-06-14 03:00:00 10.9 15 Oeste 24 Oeste 0 960.4 -0.4 71
2019-06-14 02:00:00 11.5 8 Oeste 31 Sudoeste 0 960.8 0.6 70
2019-06-14 01:00:00 12.7 18 Oeste 39 Sudoeste 0 960.7 1.1 64
2019-06-14 00:00:00 14.1 16 Oeste 35 Oeste 0 960.8 2.2 57
2019-06-13 23:00:00 15.6 19 Oeste 42 Oeste 0 960.2 2.1 51
2019-06-13 22:00:00 17.4 23 Oeste 37 Oeste 0 959.6 1.6 45
2019-06-13 21:00:00 21.1 18 Oeste 33 Noroeste 0 958.6 0.7 32
2019-06-13 20:00:00 23 18 Oeste 31 Oeste 0 958.1 -0.1 25
2019-06-13 19:00:00 24.1 16 Oeste 37 Oeste 0 958 -0.4 22
2019-06-13 18:00:00 24.3 -- -- -- -- 0 957.9 -0.9 24
2019-06-13 17:00:00 24.6 10 Oeste 31 Sudoeste 0 958.2 -0.9 22
2019-06-13 16:00:00 24.3 14 Sudoeste 28 Oeste 0 958.4 -0.9 24
2019-06-13 15:00:00 23.8 9 Sudoeste 27 Oeste 0 958.8 -0.9 27
2019-06-13 14:00:00 21.7 12 Oeste 26 Oeste 0 959.1 -0.5 31
2019-06-13 13:00:00 20.2 8 Oeste 22 Oeste 0 959.3 -0.1 36
2019-06-13 12:00:00 18.2 9 Oeste 16 Sudoeste 0 959.7 0.7 42
2019-06-13 11:00:00 15.7 5 Norte 23 Noroeste 0 959.6 0.9 49
2019-06-13 10:00:00 14.6 9 Noroeste 19 Noroeste 0 959.4 0.9 54
2019-06-13 09:00:00 12.7 8 Oeste 15 Oeste 0 959 0.5 60
2019-06-13 08:00:00 8.6 5 Sudoeste 10 Sudoeste 0 958.7 0.3 73
2019-06-13 07:00:00 7.7 8 Sudoeste 12 Sudoeste 0 958.5 -0.1 73
2019-06-13 06:00:00 8.3 5 Sur 10 Sudoeste 0 958.5 -0.3 71
2019-06-13 05:00:00 9.2 3 Sudeste 15 Sudoeste 0 958.4 -0.7 69
2019-06-13 04:00:00 10.2 8 Sudoeste 13 Sudoeste 0 958.6 -0.8 68
2019-06-13 03:00:00 10.9 9 Sudoeste 21 Sudoeste 0 958.8 -0.9 64
2019-06-13 02:00:00 11.7 6 Sudoeste 14 Oeste 0 959.1 -0.5 60
2019-06-13 01:00:00 12.5 7 Sur 22 Oeste 0 959.4 0.3 58
2019-06-13 00:00:00 14.2 15 Sudoeste 31 Oeste 0 959.7 1.1 51
2019-06-12 23:00:00 16 18 Oeste 44 Oeste 0 959.6 1.2 43
2019-06-12 22:00:00 18.3 21 Oeste 37 Oeste 0 959.1 0.7 39
2019-06-12 21:00:00 21.8 22 Oeste 38 Oeste 0 958.6 -0.2 32
2019-06-12 20:00:00 24.2 19 Sudoeste 35 Oeste 0 958.4 -0.8 18
2019-06-12 19:00:00 25.7 15 Sudoeste 35 Sudoeste 0 958.4 -1.1 15
2019-06-12 18:00:00 26.3 16 Sudoeste 33 Sudoeste 0 958.8 -1.4 14
2019-06-12 17:00:00 26.2 13 Sudoeste 36 Oeste 0 959.2 -1.7 13
2019-06-12 16:00:00 25.4 13 Noroeste 28 Sudoeste 0 959.5 -2 14
2019-06-12 15:00:00 24.8 12 Oeste 26 Norte 0 960.2 -1.7 18
2019-06-12 14:00:00 24.4 7 Oeste 22 Norte 0 960.9 -1.3 19
2019-06-12 13:00:00 22.1 5 Norte 18 Norte 0 961.5 -0.6 25
2019-06-12 12:00:00 20.7 5 Norte 19 Noroeste 0 961.9 -0.3 28
2019-06-12 11:00:00 18.5 6 Norte 22 Noroeste 0 962.2 0.1 33
2019-06-12 10:00:00 15.8 5 Norte 12 Noroeste 0 962.1 0.2 39
2019-06-12 09:00:00 13.8 5 Noroeste 13 Oeste 0 962.2 0.3 47
2019-06-12 08:00:00 10.4 5 Oeste 10 Sudoeste 0 962.1 0 58
2019-06-12 07:00:00 9.8 5 Sudoeste 10 Sudoeste 0 961.9 -0.4 59
2019-06-12 06:00:00 10.3 6 Sudoeste 12 Sudoeste 0 961.9 -0.7 59
2019-06-12 05:00:00 11.2 5 Sudoeste 9 Sudoeste 0 962.1 -0.9 57
2019-06-12 04:00:00 12.2 7 Sudoeste 11 Oeste 0 962.3 -0.8 55
2019-06-12 03:00:00 14.4 5 Sudoeste 16 Oeste 0 962.6 -0.3 48
2019-06-12 02:00:00 15.1 8 Oeste 16 Oeste 0 963 0.7 50
2019-06-12 01:00:00 16 6 Oeste 17 Oeste 0 963.1 1.4 48
2019-06-12 00:00:00 17.3 10 Oeste 20 Noroeste 0 962.9 1.3 38
2019-06-11 23:00:00 18.9 9 Noroeste 16 Noroeste 0 962.3 1.1 26
2019-06-11 22:00:00 21 8 Norte 28 Norte 0 961.7 0.3 20
2019-06-11 21:00:00 23.2 16 Norte 40 Norte 0 961.6 0.1 17
2019-06-11 20:00:00 24.3 23 Norte 37 Norte 0 961.2 -0.4 17
2019-06-11 19:00:00 24.9 23 Norte 46 Norte 0 961.4 -0.7 17
2019-06-11 18:00:00 24.6 26 Norte 48 Norte 0 961.5 -0.9 19
2019-06-11 17:00:00 24.7 19 Noroeste 45 Norte 0 961.6 -0.8 20
2019-06-11 16:00:00 23.4 19 Noroeste 53 Noroeste 0 962.1 -0.4 20
2019-06-11 15:00:00 22.6 22 Noroeste -- -- 0 962.4 -0.4 22
2019-06-11 14:00:00 21.6 26 Noroeste 53 Noroeste 0 962.4 -0.2 25
2019-06-11 13:00:00 20.8 24 Noroeste 49 Norte 0 962.5 -0.1 32
2019-06-11 12:00:00 19.4 23 Norte 48 Noroeste 0 962.8 0.2 38
2019-06-11 11:00:00 18.4 21 Noroeste 40 Norte 0 962.6 0.3 44
2019-06-11 10:00:00 15.4 14 Noroeste 27 Noroeste 0 962.6 0.3 55
2019-06-11 09:00:00 13.8 13 Noroeste 23 Noroeste 0 962.6 0.3 58
2019-06-11 08:00:00 12 8 Oeste 17 Oeste 0 962.3 -0.2 63
2019-06-11 07:00:00 11.5 9 Oeste 17 Sudoeste 0 962.3 -0.6 63
2019-06-11 06:00:00 11.7 9 Oeste 24 Oeste 0 962.3 -0.9 62
2019-06-11 05:00:00 12.3 12 Oeste 26 Oeste 0 962.5 -1.1 58
2019-06-11 04:00:00 12.5 12 Oeste 27 Oeste 0 962.9 -1.2 55
2019-06-11 03:00:00 13 13 Oeste 25 Oeste 0 963.2 -1.2 52
2019-06-11 02:00:00 13.7 17 Oeste 29 Oeste 0 963.6 -0.6 51
2019-06-11 01:00:00 14.3 11 Oeste 26 Oeste 0 964.1 0.4 51
2019-06-11 00:00:00 15.1 18 Oeste 34 Oeste 0 964.4 0.9 50
2019-06-10 23:00:00 16.4 16 Oeste 39 Oeste 0 964.2 0.8 45
2019-06-10 22:00:00 18.5 24 Oeste 45 Oeste 0 963.7 0 35
2019-06-10 21:00:00 21.6 23 Oeste 42 Oeste 0 963.5 -0.3 30
2019-06-10 20:00:00 23.8 22 Oeste 41 Oeste 0 963.4 -1 26
2019-06-10 19:00:00 25.3 22 Oeste 42 Oeste 0 963.7 -1.2 24
2019-06-10 18:00:00 26 17 Oeste 34 Noroeste 0 963.8 -1.7 23
2019-06-10 17:00:00 25.5 19 Oeste 36 Oeste 0 964.4 -1.9 21
2019-06-10 16:00:00 25.5 14 Noroeste 37 Oeste 0 964.9 -1.9 22
2019-06-10 15:00:00 24.5 13 Noroeste 32 Noroeste 0 965.5 -1.4 28
2019-06-10 14:00:00 23 12 Noroeste 32 Noroeste 0 966.3 -0.8 29
2019-06-10 13:00:00 21.6 12 Noroeste 32 Noroeste 0 966.8 -0.5 34
2019-06-10 12:00:00 20.7 14 Noroeste 31 Noroeste 0 966.9 -0.1 37
2019-06-10 11:00:00 18.3 17 Noroeste 35 Noroeste 0 967.1 0.3 46
2019-06-10 10:00:00 16 13 Noroeste 27 Noroeste 0 967.3 0.9 56
2019-06-10 09:00:00 14.3 12 Noroeste 27 Noroeste 0 967 0.4 62
2019-06-10 08:00:00 11.8 5 Oeste 12 Sudoeste 0 966.8 0.2 74
2019-06-10 07:00:00 10.9 6 Sudoeste 13 Sudoeste 0 966.4 -0.8 76
2019-06-10 06:00:00 10.8 5 Sudoeste 12 Sur 0 966.6 -1.1 76
2019-06-10 05:00:00 11.5 6 Sudoeste 13 Sudoeste 0 966.6 -1.4 75
2019-06-10 04:00:00 12.1 7 Sudoeste 16 Oeste 0 967.2 -0.5 75
2019-06-10 03:00:00 13.1 9 Oeste 22 Oeste 0 967.7 0.1 72
2019-06-10 02:00:00 13.7 12 Oeste 24 Oeste 0 968 0.7 69
2019-06-10 01:00:00 14.5 16 Oeste 28 Oeste 0 967.7 0.9 66
2019-06-10 00:00:00 15.7 19 Oeste 33 Oeste 0 967.6 1.1 60
2019-06-09 23:00:00 17 17 Oeste 32 Oeste 0 967.3 1.2 53
2019-06-09 22:00:00 18.6 21 Oeste 40 Oeste 0 966.8 1.2 46
2019-06-09 21:00:00 20.6 21 Oeste 46 Oeste 0 966.5 0.8 39
2019-06-09 20:00:00 22.3 25 Oeste 42 Oeste 0 966.1 0.2 36
2019-06-09 19:00:00 23.7 21 Oeste 41 Oeste 0 965.6 -0.4 32
2019-06-09 18:00:00 24 21 Oeste -- -- 0 965.7 -0.8 30
2019-06-09 17:00:00 24.3 20 Oeste 38 Oeste 0 965.9 -1 28
2019-06-09 16:00:00 24 15 Oeste 36 Noroeste 0 966 -1 28
2019-06-09 15:00:00 23.5 16 Oeste 35 Noroeste 0 966.5 -0.6 27
2019-06-09 14:00:00 22.8 16 Oeste 31 Oeste 0 966.9 -0.2 28
2019-06-09 13:00:00 21 11 Oeste 25 Noroeste 0 967 -0.1 31
2019-06-09 12:00:00 19.7 11 Oeste 23 Noroeste 0 967.1 0.3 33
2019-06-09 11:00:00 18.1 9 Noroeste 21 Oeste 0 967.1 0.8 38
2019-06-09 10:00:00 15.5 9 Oeste 21 Oeste 0 967.1 1.2 46
2019-06-09 09:00:00 13.2 10 Oeste 20 Oeste 0 966.8 0.9 54
2019-06-09 08:00:00 10.6 8 Sudoeste 16 Oeste 0 966.3 0.4 64
2019-06-09 07:00:00 8.2 5 Sudoeste 7 Oeste 0 965.9 -0.1 58
2019-06-09 06:00:00 9.7 4 Noroeste 8 Noroeste 0 965.9 -0.2 58
2019-06-09 05:00:00 9.9 3 Nordeste 8 Noroeste 0 965.9 -0.6 56
2019-06-09 04:00:00 10.8 4 Norte 10 Oeste 0 966 -0.8 59
2019-06-09 03:00:00 11.3 3 Norte 12 Noroeste 0 966.1 -0.7 58
2019-06-09 02:00:00 12.6 6 Oeste 18 Oeste 0 966.5 0 56
2019-06-09 01:00:00 13.6 12 Oeste 31 Oeste 0 966.8 1 53
2019-06-09 00:00:00 14.7 15 Oeste 35 Oeste 0 966.8 1.4 52
2019-06-08 23:00:00 16.5 17 Oeste 34 Sudoeste 0 966.5 1.4 49
2019-06-08 22:00:00 19.3 18 Oeste 37 Oeste 0 965.8 0.8 43
2019-06-08 21:00:00 21.2 21 Oeste 35 Oeste 0 965.4 0.2 38
2019-06-08 20:00:00 23.6 18 Oeste 31 Sudoeste 0 965.1 -0.3 28
2019-06-08 19:00:00 25.4 18 Oeste 33 Oeste 0 965 -0.9 23
2019-06-08 18:00:00 26.3 10 Oeste 31 Noroeste 0 965.2 -1.3 20
2019-06-08 17:00:00 25.8 13 Sudoeste 28 Noroeste 0 965.4 -1.7 20
2019-06-08 16:00:00 25.7 10 Sur 26 Oeste 0 965.9 -1.5 21
2019-06-08 15:00:00 23.9 9 Noroeste 24 Noroeste 0 966.5 -1 22
2019-06-08 14:00:00 22.9 4 Norte 24 Oeste 0 967.1 -0.7 26
2019-06-08 13:00:00 21.5 10 Oeste 23 Noroeste 0 967.4 -0.7 27
2019-06-08 12:00:00 20.4 8 Norte 22 Norte 0 967.5 -0.7 33
2019-06-08 11:00:00 18.4 5 Norte 15 Norte 0 967.8 -0.4 41
2019-06-08 10:00:00 15 6 Noroeste 13 Oeste 0 968.1 0.1 49
2019-06-08 09:00:00 12.7 6 Oeste 11 Oeste 0 968.2 0.2 60
2019-06-08 08:00:00 8.5 6 Sur 10 Sudoeste 0 968.2 0.1 76
2019-06-08 07:00:00 7.9 6 Sudoeste 10 Sur 0 968 -0.5 77
2019-06-08 06:00:00 9.1 6 Sudoeste 10 Sur 0 968 -0.8 73
2019-06-08 05:00:00 9.9 5 Sudoeste 9 Sudoeste 0 968.1 -0.8 70
2019-06-08 04:00:00 10.5 5 Sudoeste 10 Sudoeste 0 968.5 -0.5 69
2019-06-08 03:00:00 11.2 6 Sur 10 Sudoeste 0 968.8 -0.4 66
2019-06-08 02:00:00 12.6 6 Sudoeste 15 Oeste 0 968.9 0.4 61
2019-06-08 01:00:00 13.4 10 Oeste 22 Oeste 0 969 1.2 58
2019-06-08 00:00:00 14.5 12 Oeste 26 Noroeste 0 969.2 1.7 52
2019-06-07 23:00:00 16 12 Oeste 24 Noroeste 0 968.5 1.3 44
2019-06-07 22:00:00 17.9 12 Oeste 23 Noroeste 0 967.8 0.8 36
2019-06-07 21:00:00 20.1 14 Noroeste 24 Noroeste 0 967.5 0.6 32
2019-06-07 20:00:00 20.8 12 Noroeste 28 Noroeste 0 967.2 -0.1 30
2019-06-07 19:00:00 21.2 9 Oeste 26 Oeste 0 967 -0.2 28
2019-06-07 18:00:00 20.8 12 Noroeste 28 Oeste 0 966.9 -0.4 29
2019-06-07 17:00:00 19.8 15 Noroeste 32 Noroeste 0 967.3 -0.1 31
2019-06-07 16:00:00 19.9 15 Noroeste 31 Noroeste 0 967.2 -0.1 33
2019-06-07 15:00:00 19 10 Noroeste 28 Norte 0 967.3 0.5 35
2019-06-07 14:00:00 17.9 12 Noroeste 24 Oeste 0 967.4 1 42
2019-06-07 13:00:00 16 14 Noroeste 29 Noroeste 0 967.3 1.3 47
2019-06-07 12:00:00 15.3 14 Noroeste 30 Noroeste 0 966.8 1.5 53
2019-06-07 11:00:00 13.8 13 Noroeste 30 Oeste 0 966.4 1.9 60
2019-06-07 10:00:00 12.6 12 Noroeste 26 Noroeste 0 966 2.4 67
2019-06-07 09:00:00 11.3 11 Oeste 21 Oeste 0 965.3 2.3 79
2019-06-07 08:00:00 9.7 12 Oeste 25 Oeste 0 964.5 1.8 87
2019-06-07 07:00:00 9.5 13 Oeste 27 Oeste 0 963.6 1.3 87
2019-06-07 06:00:00 9.7 14 Oeste 30 Oeste 0 963 0.9 87
2019-06-07 05:00:00 9.9 14 Oeste 23 Oeste 0 962.7 1 88
2019-06-07 04:00:00 10.1 14 Oeste 30 Sudoeste 0 962.3 1.2 89
2019-06-07 03:00:00 10.4 15 Oeste 27 Oeste 0 962.1 1.5 88
2019-06-07 02:00:00 10.8 14 Oeste 33 Oeste 0 961.7 1.5 87
2019-06-07 01:00:00 11.3 18 Oeste -- -- 0 961.1 2.4 86
2019-06-07 00:00:00 11.8 15 Oeste 36 Oeste 0.2 960.6 2.5 88
2019-06-06 23:00:00 11.4 21 Oeste -- -- 1 960.2 2 88
2019-06-06 22:00:00 14.2 23 Sur 45 Sudoeste 0 958.7 0.5 86
2019-06-06 21:00:00 16 23 Sur 51 Sudoeste 0 958.1 -0.4 71
2019-06-06 20:00:00 17.9 24 Sudoeste 48 Sudoeste 0 958.2 -0.6 58
2019-06-06 19:00:00 18.7 29 Sur 53 Sudoeste 0 958.2 -1.3 50
2019-06-06 18:00:00 20.4 31 Sudoeste 57 Sudoeste 0 958.5 -2 41
2019-06-06 17:00:00 20.8 32 Sur 51 Sudoeste 0 958.8 -2.3 40
2019-06-06 16:00:00 20.8 27 Sur 47 Sur 0 959.5 -1.9 38
2019-06-06 15:00:00 19.2 24 Sur 40 Sudoeste 0 960.5 -1.3 41
2019-06-06 14:00:00 18 15 Sudoeste 30 Sur 0 961.1 -1.2 44
2019-06-06 13:00:00 18.3 15 Sudoeste 27 Sudoeste 0 961.4 -1.1 43
2019-06-06 12:00:00 17.3 13 Oeste 23 Oeste 0 961.8 -0.9 45
2019-06-06 11:00:00 15.3 10 Sudoeste 22 Sur 0 962.3 -0.5 53
2019-06-06 10:00:00 13.2 7 Sudoeste 23 Oeste 0 962.5 -0.2 67
2019-06-06 09:00:00 11.7 10 Oeste 18 Oeste 0 962.7 -0.4 75
2019-06-06 08:00:00 10.2 10 Oeste 18 Sudoeste 0 962.8 -0.7 81
2019-06-06 07:00:00 9.6 11 Oeste 19 Oeste 0 962.7 -1.4 81
2019-06-06 06:00:00 9.8 13 Oeste 22 Sudoeste 0 963.1 -1.3 79
2019-06-06 05:00:00 10.1 13 Oeste 24 Oeste 0 963.5 -1.1 74
2019-06-06 04:00:00 10.3 13 Oeste 21 Oeste 0 964.1 -0.7 73
2019-06-06 03:00:00 10.5 9 Oeste 23 Oeste 0 964.4 -0.5 69
2019-06-06 02:00:00 11 14 Oeste 26 Oeste 0 964.6 0.2 66
2019-06-06 01:00:00 11.9 17 Oeste 29 Oeste 0 964.8 0.9 60
2019-06-06 00:00:00 12.9 15 Oeste 32 Oeste 0 964.9 1.1 55
2019-06-05 23:00:00 14 17 Oeste 30 Oeste 0 964.4 1 49
2019-06-05 22:00:00 15.2 17 Oeste 35 Noroeste 0 963.9 0.4 41
2019-06-05 21:00:00 16.8 21 Oeste 42 Noroeste 0 963.8 0.2 36
2019-06-05 20:00:00 18.7 17 Oeste 42 Oeste 0 963.4 -0.2 34
2019-06-05 19:00:00 19.9 20 Oeste 39 Noroeste 0 963.5 -0.5 32
2019-06-05 18:00:00 19.8 -- -- -- -- 0 963.6 -1 31
2019-06-05 17:00:00 20.5 19 Oeste 45 Oeste 0 963.6 -1.2 31
2019-06-05 16:00:00 19.8 21 Oeste 39 Oeste 0 964 -1 32
2019-06-05 15:00:00 18.9 22 Oeste -- -- 0 964.6 -0.3 35
2019-06-05 14:00:00 18.6 21 Oeste 42 Noroeste 0 964.8 -0.2 35
2019-06-05 13:00:00 18.6 21 Oeste 40 Noroeste 0 965 0.3 38
2019-06-05 12:00:00 16.8 22 Noroeste 41 Noroeste 0 964.9 0.9 45
2019-06-05 11:00:00 15.1 19 Noroeste 35 Oeste 0 965 1.7 54
2019-06-05 10:00:00 13.7 14 Oeste 34 Oeste 0 964.7 1.7 61
2019-06-05 09:00:00 12 18 Oeste 32 Oeste 0 964 1.4 71
2019-06-05 08:00:00 10.3 18 Oeste 27 Oeste 0 963.3 0.8 82
2019-06-05 07:00:00 10.1 12 Oeste 24 Oeste 0 963 0.6 83
2019-06-05 06:00:00 10.3 15 Oeste 30 Oeste 0 962.6 0.2 83
2019-06-05 05:00:00 10.8 18 Oeste 36 Oeste 0 962.5 0.2 82
2019-06-05 04:00:00 11 15 Oeste 32 Oeste 0 962.4 0.4 80
2019-06-05 03:00:00 11.4 20 Oeste 40 Oeste 0 962.4 0.9 78
2019-06-05 02:00:00 11.9 17 Oeste 40 Oeste 0 962.3 1.2 76
2019-06-05 01:00:00 12.4 22 Oeste 43 Oeste 0 962 1.3 71
2019-06-05 00:00:00 13.1 27 Oeste 49 Oeste 0 961.5 1 64
2019-06-04 23:00:00 14.2 26 Oeste 50 Oeste 0 961.1 0.5 58
2019-06-04 22:00:00 15.6 22 Oeste 44 Oeste 0 960.7 -0.3 49
2019-06-04 21:00:00 18.3 20 Oeste 42 Oeste 0 960.5 -1.3 48
2019-06-04 20:00:00 19.2 24 Oeste 42 Oeste 0 960.6 -1.1 50
2019-06-04 19:00:00 19 19 Oeste 36 Oeste 0 961 -0.3 59
2019-06-04 18:00:00 16.1 14 Sudoeste 43 Sudoeste 0 961.8 0.1 83
2019-06-04 17:00:00 20.3 25 Oeste 46 Oeste 0 961.7 -0.5 61
2019-06-04 16:00:00 22.7 20 Oeste 41 Sudoeste 0 961.3 -1.3 47
2019-06-04 15:00:00 22 21 Oeste 36 Oeste 0 961.7 -1 49
2019-06-04 14:00:00 22.6 21 Oeste 42 Oeste 0 962.2 -0.6 47
2019-06-04 13:00:00 21.4 19 Oeste 36 Oeste 0 962.6 0 50
2019-06-04 12:00:00 20.4 16 Sudoeste -- -- 0 962.7 0.3 53
2019-06-04 11:00:00 18.3 22 Oeste 39 Oeste 0 962.8 0.8 64
2019-06-04 10:00:00 17.2 20 Oeste 44 Oeste 0 962.6 0.8 67
2019-06-04 09:00:00 15.7 22 Oeste 44 Oeste 0 962.4 1 71
2019-06-04 08:00:00 14.7 19 Oeste 36 Oeste 0 962 0.3 77
2019-06-04 07:00:00 14.4 14 Oeste 39 Oeste 0 961.8 -0.4 79
2019-06-04 06:00:00 14.6 18 Oeste 36 Oeste 0 961.4 -1 81
2019-06-04 05:00:00 14.8 11 Oeste 28 Oeste 0 961.7 -1.3 81
2019-06-04 04:00:00 15.6 10 Oeste 25 Oeste 0 962.2 -1.2 76
2019-06-04 03:00:00 16.6 14 Oeste 26 Sudoeste 0 962.4 -1.2 76
2019-06-04 02:00:00 17.4 15 Oeste 26 Oeste 0 963 -0.4 78
2019-06-04 01:00:00 18.3 17 Oeste 30 Oeste 0 963.4 0.5 74
2019-06-04 00:00:00 19.8 18 Oeste 31 Oeste 0 963.6 0.8 65
2019-06-03 23:00:00 21.2 17 Oeste 38 Oeste 0 963.4 0.7 60
2019-06-03 22:00:00 23.6 17 Oeste 36 Oeste 0 962.9 -0.2 56
2019-06-03 21:00:00 27.1 18 Sudoeste 35 Sudoeste 0 962.8 -0.5 43
2019-06-03 20:00:00 28.7 16 Sudoeste 40 Oeste 0 962.7 -1 37
2019-06-03 19:00:00 29.4 18 Sudoeste 38 Oeste 0 963.1 -1 33
2019-06-03 18:00:00 30 15 Sudoeste 40 Sudoeste 0 963.3 -1.5 30
2019-06-03 17:00:00 29.9 18 Sudoeste 35 Sudoeste 0 963.7 -1.3 29
2019-06-03 16:00:00 30.3 16 Sudoeste 36 Sudoeste 0 964.1 -1.1 24
2019-06-03 15:00:00 29.5 17 Sudoeste 33 Sudoeste 0 964.8 -0.5 19
2019-06-03 14:00:00 29.4 15 Oeste 28 Oeste 0 965 -0.5 18
2019-06-03 13:00:00 29.5 9 Sudoeste 21 Noroeste 0 965.2 -0.3 16
2019-06-03 12:00:00 28 7 Oeste 17 Sudoeste 0 965.3 -0.1 19
2019-06-03 11:00:00 25.7 6 Sudoeste 12 Sudoeste 0 965.5 0.4 25
2019-06-03 10:00:00 23.4 4 Sur 10 Sur 0 965.5 0.6 27
2019-06-03 09:00:00 19.2 4 Sur 8 Sudeste 0 965.4 0.6 34
2019-06-03 08:00:00 17 4 Sudoeste 9 Oeste 0 965.1 0.1 42
2019-06-03 07:00:00 18 2 Norte 10 Oeste 0 964.9 -0.4 35
2019-06-03 06:00:00 19.8 5 Oeste 11 Oeste 0 964.8 -0.5 32
2019-06-03 05:00:00 19.7 4 Sudeste 14 Noroeste 0 965 -0.5 35
2019-06-03 04:00:00 20.8 8 Oeste 33 Oeste 0 965.3 -0.4 36
2019-06-03 03:00:00 21.4 17 Oeste 36 Oeste 0 965.3 -0.4 35
2019-06-03 02:00:00 21.5 18 Oeste 33 Oeste 0 965.5 0.1 39
2019-06-03 01:00:00 22.2 17 Oeste 30 Oeste 0 965.7 0.6 39
2019-06-03 00:00:00 23.1 16 Oeste 32 Sudoeste 0 965.7 0.7 34
2019-06-02 23:00:00 24.6 15 Oeste 32 Oeste 0 965.4 0.7 28
2019-06-02 22:00:00 26.3 20 Oeste 37 Oeste 0 965.1 0.6 28
2019-06-02 21:00:00 28.5 22 Oeste 41 Oeste 0 965 0.4 21
2019-06-02 20:00:00 30.1 23 Oeste 44 Oeste 0 964.7 -0.1 17
2019-06-02 19:00:00 32.1 22 Oeste 44 Oeste 0 964.5 -0.4 16
2019-06-02 18:00:00 34.3 15 Oeste 39 Oeste 0 964.6 -0.8 15
2019-06-02 17:00:00 34 13 Oeste 31 Sudoeste 0 964.8 -1.2 15
2019-06-02 16:00:00 34.3 12 Oeste 30 Sudoeste 0 964.9 -1.6 14
2019-06-02 15:00:00 33.9 13 Sudoeste 28 Oeste 0 965.4 -1.1 14
2019-06-02 14:00:00 33.6 5 Oeste 28 Noroeste 0 966 -0.6 14
2019-06-02 13:00:00 32.2 11 Noroeste 22 Noroeste 0 966.5 0.2 15
2019-06-02 12:00:00 30.9 5 Norte 12 Norte 0 966.5 0.6 17
2019-06-02 11:00:00 28.9 6 Noroeste 13 Noroeste 0 966.6 0.8 20
2019-06-02 10:00:00 27.3 2 Noroeste 9 Sudoeste 0 966.3 0.7 25
2019-06-02 09:00:00 22.4 5 Sur 9 Sudoeste 0 965.9 0.6 37
2019-06-02 08:00:00 18.3 7 Sur 11 Sur 0 965.8 0.5 40
2019-06-02 07:00:00 17.3 7 Sudoeste 10 Sur 0 965.6 0.1 41
2019-06-02 06:00:00 18.3 7 Sur 12 Sudoeste 0 965.3 -0.3 41
2019-06-02 05:00:00 18.8 8 Sur 11 Sudoeste 0 965.3 -0.5 40
2019-06-02 04:00:00 20.1 6 Sur 12 Sur 0 965.5 -0.6 38
2019-06-02 03:00:00 21 6 Sudoeste 10 Sudoeste 0 965.6 -0.6 37
2019-06-02 02:00:00 21.3 7 Sur 12 Sur 0 965.8 0.1 40
2019-06-02 01:00:00 22.8 8 Sudoeste 12 Sudoeste 0 966.1 1.2 38
2019-06-02 00:00:00 26.5 7 Oeste 15 Oeste 0 966.2 1.6 29
2019-06-01 23:00:00 27.8 10 Oeste 21 Noroeste 0 965.7 1.2 26
2019-06-01 22:00:00 29.9 10 Sur 13 Sudoeste 0 964.9 0.1 22
2019-06-01 21:00:00 33.5 10 Sudoeste 23 Sur 0 964.6 -0.5 15
2019-06-01 20:00:00 34.8 11 Sudoeste 20 Sudoeste 0 964.5 -1.1 14
2019-06-01 19:00:00 34.5 6 Este 22 Sudeste 0 964.8 -1.5 12
2019-06-01 18:00:00 34.6 12 Oeste 24 Oeste 0 965.1 -1.7 12
2019-06-01 17:00:00 35.3 7 Sudeste 23 Sur 0 965.6 -1.9 12
2019-06-01 16:00:00 34.4 10 Sur 24 Sudeste 0 966.3 -1.6 13
2019-06-01 15:00:00 33.4 11 Este 23 Sur 0 966.8 -1.1 13
2019-06-01 14:00:00 33.2 6 Sur 19 Sudeste 0 967.5 -0.5 20
2019-06-01 13:00:00 31.6 4 Este 17 Este 0 967.9 0.2 23
2019-06-01 12:00:00 29.7 8 Este 15 Este 0 967.9 0.5 24
2019-06-01 11:00:00 27.3 4 Noroeste 15 Nordeste 0 968 0.9 29
2019-06-01 10:00:00 25.2 5 Este 11 Este 0 967.7 0.9 33
2019-06-01 09:00:00 21.1 3 Nordeste 8 Sudoeste 0 967.4 1.3 38
2019-06-01 08:00:00 18.3 5 Sur 15 Sur 0 967.1 0.7 43
2019-06-01 07:00:00 18.7 7 Sur 14 Este 0 966.8 0.4 39
2019-06-01 06:00:00 18.9 7 Sur 13 Sur 0 966.1 -0.5 40
2019-06-01 05:00:00 19.2 9 Sur 14 Sur 0 966.4 -0.5 40
2019-06-01 04:00:00 18.5 7 Sur 10 Sur 0 966.4 -0.7 41
2019-06-01 03:00:00 19.1 7 Sur 11 Sur 0 966.6 -0.4 39
2019-06-01 02:00:00 21 6 Sur 12 Oeste 0 966.9 0.2 32
2019-06-01 01:00:00 21.2 8 Sudoeste 12 Sur 0 967.1 0.6 33
2019-06-01 00:00:00 22 6 Sudoeste 9 Sudoeste 0 967 0.8 34
2019-05-31 23:00:00 25.1 5 Sur 10 Este 0 966.7 0.5 31
2019-05-31 22:00:00 30.1 5 Este 16 Norte 0 966.5 -0.1 16
2019-05-31 21:00:00 32.8 7 Norte 24 Nordeste 0 966.2 -0.7 13
2019-05-31 20:00:00 33.5 10 Norte 24 Nordeste 0 966.2 -1.4 12
2019-05-31 19:00:00 34 13 Nordeste 31 Nordeste 0 966.6 -1.4 13
2019-05-31 18:00:00 33.9 12 Nordeste 26 Este 0 966.9 -1.6 13
2019-05-31 17:00:00 34 12 Nordeste 26 Nordeste 0 967.6 -1.6 14
2019-05-31 16:00:00 32.8 -- -- -- -- 0 968 -1.4 16
2019-05-31 15:00:00 33.2 9 Sur 30 Este 0 968.5 -1.1 18
2019-05-31 14:00:00 32 10 Este 27 Este 0 969.2 -0.6 18
2019-05-31 13:00:00 30.5 10 Este 23 Este 0 969.4 -0.4 22
2019-05-31 12:00:00 28.5 13 Este 22 Este 0 969.6 0.2 26
2019-05-31 11:00:00 25.7 7 Este 14 Nordeste 0 969.8 0.5 32
2019-05-31 10:00:00 22.2 8 Nordeste 14 Nordeste 0 969.8 1 42
2019-05-31 09:00:00 19.6 2 Norte 8 Sur 0 969.4 1.1 45
2019-05-31 08:00:00 18.4 6 Sudeste 21 Sur 0 969.3 1.1 46
2019-05-31 07:00:00 16.8 3 Este 10 Sudoeste 0 968.8 0.5 42
2019-05-31 06:00:00 16.2 7 Sudoeste 10 Sudoeste 0 968.3 -0.2 45
2019-05-31 05:00:00 17.8 5 Oeste 15 Sudeste 0 968.2 -0.4 39
2019-05-31 04:00:00 23.1 11 Sudeste 21 Este 0 968.3 -0.6 24
2019-05-31 03:00:00 18.6 5 Sur 20 Sudeste 0 968.5 -0.6 41
2019-05-31 02:00:00 19.7 9 Sudeste 17 Sudeste 0 968.6 -0.1 37
2019-05-31 01:00:00 20.1 6 Sudeste 13 Sudeste 0 968.9 0.7 36
2019-05-31 00:00:00 21.6 5 Sur 12 Sudeste 0 969.1 1.1 33
2019-05-30 23:00:00 26.2 6 Sudeste 13 Este 0 968.7 0.9 20
2019-05-30 22:00:00 28.6 6 Este 22 Nordeste 0 968.2 -0.1 16
2019-05-30 21:00:00 30.9 14 Nordeste 31 Nordeste 0 968 -0.5 14
2019-05-30 20:00:00 31.8 15 Norte 30 Nordeste 0 967.8 -1.2 12
2019-05-30 19:00:00 31.8 16 Nordeste 35 Nordeste 0 968.3 -1.1 13
2019-05-30 18:00:00 32 12 Nordeste 31 Nordeste 0 968.5 -1.4 14
2019-05-30 17:00:00 31.6 15 Nordeste -- -- 0 969 -1.4 14
2019-05-30 16:00:00 30.7 14 Nordeste 32 Nordeste 0 969.4 -1.4 15
2019-05-30 15:00:00 30.6 17 Nordeste 34 Nordeste 0 969.9 -1.1 16
2019-05-30 14:00:00 28.8 15 Nordeste 41 Nordeste 0 970.4 -0.9 17
2019-05-30 13:00:00 28.1 17 Nordeste 42 Este 0 970.8 -0.4 19
2019-05-30 12:00:00 26.2 22 Nordeste 41 Nordeste 0 971 0.1 22
2019-05-30 11:00:00 25 16 Nordeste 34 Nordeste 0 971.3 0.9 23
2019-05-30 10:00:00 23 17 Este 27 Este 0 971.2 1.3 28
2019-05-30 09:00:00 20.9 15 Este 24 Nordeste 0 970.9 1.4 34
2019-05-30 08:00:00 18.2 8 Sudeste 17 Este 0 970.4 0.9 39
2019-05-30 07:00:00 18.8 9 Este 17 Este 0 969.9 0.4 35
2019-05-30 06:00:00 19 8 Este 21 Este 0 969.5 0 35
2019-05-30 05:00:00 15.5 6 Sudoeste 13 Nordeste 0 969.5 -0.1 50
2019-05-30 04:00:00 17.9 4 Sudeste 15 Nordeste 0 969.5 -0.2 42
2019-05-30 03:00:00 21.2 10 Nordeste 20 Nordeste 0 969.5 0 32
2019-05-30 02:00:00 21.8 5 Nordeste 19 Nordeste 0 969.6 0.8 31
2019-05-30 01:00:00 22.7 7 Este 30 Nordeste 0 969.7 1.7 28
2019-05-30 00:00:00 23.9 13 Nordeste 28 Nordeste 0 969.5 1.8 27
2019-05-29 23:00:00 24.5 10 Nordeste 18 Nordeste 0 968.8 1.4 22
2019-05-29 22:00:00 26.6 9 Nordeste 29 Nordeste 0 968 0.5 20
2019-05-29 21:00:00 28.9 15 Nordeste 32 Este 0 967.7 -0.1 18
2019-05-29 20:00:00 29.4 16 Nordeste 34 Norte 0 967.4 -0.8 17
2019-05-29 19:00:00 29.9 15 Norte 32 Norte 0 967.5 -1 17
2019-05-29 18:00:00 29.2 18 Nordeste 35 Nordeste 0 967.8 -1 17
2019-05-29 17:00:00 29.1 17 Nordeste -- -- 0 968.2 -1 18
2019-05-29 16:00:00 27.9 17 Nordeste 37 Nordeste 0 968.5 -0.8 19
2019-05-29 15:00:00 27.2 20 Este 36 Norte 0 968.8 -0.5 21
2019-05-29 14:00:00 25.6 17 Nordeste 39 Nordeste 0 969.2 -0.1 23
2019-05-29 13:00:00 24.3 21 Nordeste 39 Nordeste 0 969.3 0.2 25
2019-05-29 12:00:00 22.9 20 Nordeste 36 Nordeste 0 969.3 0.6 27
2019-05-29 11:00:00 21.3 24 Nordeste 40 Nordeste 0 969.3 1 30
2019-05-29 10:00:00 19.9 15 Nordeste 33 Nordeste 0 969.1 1.5 33
2019-05-29 09:00:00 17.4 17 Nordeste 31 Norte 0 968.7 1.6 39
2019-05-29 08:00:00 16.2 11 Nordeste 22 Nordeste 0 968.3 1.4 42
2019-05-29 07:00:00 16.7 10 Este 25 Este 0 967.6 1 41
2019-05-29 06:00:00 17.4 11 Este 23 Este 0 967.1 0.8 39
2019-05-29 05:00:00 18.4 8 Este 25 Nordeste 0 966.9 0.9 35
2019-05-29 04:00:00 19.6 13 Nordeste 41 Nordeste 0 966.6 0.9 31
2019-05-29 03:00:00 21 18 Norte 36 Norte 0 966.3 0.9 27
2019-05-29 02:00:00 21.8 13 Nordeste 35 Norte 0 966 1.1 26
2019-05-29 01:00:00 22.7 16 Norte 40 Nordeste 0 965.7 1.4 25
2019-05-29 00:00:00 23.2 17 Norte 31 Norte 0 965.4 1.7 25
2019-05-28 23:00:00 23 12 Norte 30 Norte 0 964.9 1.7 27
2019-05-28 22:00:00 25.5 17 Norte 32 Norte 0 964.3 1.2 23
2019-05-28 21:00:00 28.2 18 Norte 38 Noroeste 0 963.7 0.4 19
2019-05-28 20:00:00 29.4 21 Noroeste 41 Noroeste 0 963.2 -0.1 17
2019-05-28 19:00:00 30.1 22 Norte 38 Norte 0 963.1 -0.4 14
2019-05-28 18:00:00 29.5 19 Noroeste 41 Noroeste 0 963.3 -0.3 16
2019-05-28 17:00:00 30.1 17 Noroeste 37 Noroeste 0 963.3 -0.7 18
2019-05-28 16:00:00 30.4 16 Norte 36 Noroeste 0 963.5 -0.5 20
2019-05-28 15:00:00 29.2 13 Nordeste 37 Nordeste 0 963.6 -0.2 22
2019-05-28 14:00:00 28.1 15 Norte 35 Norte 0 964 0.6 28
2019-05-28 13:00:00 26.5 16 Norte 33 Nordeste 0 964 0.9 32
2019-05-28 12:00:00 24.9 15 Norte 33 Norte 0 963.8 0.9 37
2019-05-28 11:00:00 22.6 19 Norte 33 Norte 0 963.4 1 41
2019-05-28 10:00:00 20.3 15 Norte 28 Noroeste 0 963.1 1.1 49
2019-05-28 09:00:00 17.7 7 Noroeste 13 Noroeste 0 962.9 1.2 55
2019-05-28 08:00:00 14.2 5 Sudoeste 9 Sudoeste 0 962.4 0.7 71
2019-05-28 07:00:00 15.1 5 Sudoeste 9 Oeste 0 962 0.2 68
2019-05-28 06:00:00 17.1 6 Sudoeste 19 Oeste 0 961.7 -0.2 61
2019-05-28 05:00:00 18 11 Oeste 17 Oeste 0 961.7 -0.5 61
2019-05-28 04:00:00 18.3 10 Oeste 18 Oeste 0 961.8 -0.5 66
2019-05-28 03:00:00 18.4 5 Sudoeste 14 Oeste 0 961.9 -0.2 68
2019-05-28 02:00:00 19.1 6 Sudoeste 17 Oeste 0 962.2 0.6 66
2019-05-28 01:00:00 19.6 10 Oeste 22 Oeste 0 962.3 1.2 63
2019-05-28 00:00:00 20.3 11 Oeste 22 Oeste 0 962.1 1.2 61
2019-05-27 23:00:00 21.4 14 Oeste 25 Oeste 0 961.6 1.1 58
2019-05-27 22:00:00 22.9 14 Oeste 31 Oeste 0 961.1 0.5 53
2019-05-27 21:00:00 26 18 Oeste 37 Oeste 0 960.9 0.2 42
2019-05-27 20:00:00 27.6 21 Oeste 41 Oeste 0 960.5 -0.8 38
2019-05-27 19:00:00 29.4 19 Oeste 38 Noroeste 0 960.6 -0.8 23
2019-05-27 18:00:00 29.8 22 Oeste 50 Oeste 0 960.7 -1.3 26
2019-05-27 17:00:00 29.9 24 Oeste 42 Oeste 0 961.3 -1.3 31
2019-05-27 16:00:00 30.3 17 Oeste 32 Oeste 0 961.4 -1.8 28
2019-05-27 15:00:00 30.5 14 Noroeste -- -- 0 962 -1.4 25
2019-05-27 14:00:00 29 15 Noroeste 31 Noroeste 0 962.6 -1.1 27
2019-05-27 13:00:00 28 17 Noroeste 32 Oeste 0 963.2 -0.7 28
2019-05-27 12:00:00 26.1 16 Noroeste 35 Noroeste 0 963.4 -0.2 33
2019-05-27 11:00:00 24.4 14 Noroeste 34 Noroeste 0 963.7 0.4 37
2019-05-27 10:00:00 22.1 10 Noroeste 22 Noroeste 0 963.9 0.4 45
2019-05-27 09:00:00 21.1 10 Noroeste 19 Noroeste 0 963.6 0.4 48
2019-05-27 08:00:00 15.5 6 Sudoeste 9 Sur 0 963.3 0.1 69
2019-05-27 07:00:00 15.1 6 Sur 11 Sudoeste 0 963.5 -0.3 72
2019-05-27 06:00:00 16 8 Sur 10 Sur 0 963.2 -1.1 69
2019-05-27 05:00:00 16.9 7 Sudoeste 10 Sudoeste 0 963.2 -1.4 66
2019-05-27 04:00:00 18.2 6 Sur 9 Sur 0 963.8 -1.2 63
2019-05-27 03:00:00 19.8 5 Sudoeste 12 Sudoeste 0 964.3 -0.8 58
2019-05-27 02:00:00 21.3 8 Oeste 17 Oeste 0 964.6 0 53
2019-05-27 01:00:00 22 6 Sudoeste 23 Noroeste 0 965 0.9 51
2019-05-27 00:00:00 23.3 12 Oeste 22 Oeste 0 965.1 1.1 45
2019-05-26 23:00:00 24.4 8 Norte 22 Noroeste 0 964.6 0.8 29
2019-05-26 22:00:00 26.3 13 Norte 34 Noroeste 0 964.1 0.2 25
2019-05-26 21:00:00 29.1 19 Norte 41 Norte 0 964 -0.3 22
2019-05-26 20:00:00 30.2 23 Norte 44 Norte 0 963.8 -1.1 21
2019-05-26 19:00:00 30.6 16 Noroeste -- -- 0 963.9 -1.6 20
2019-05-26 18:00:00 30.9 18 Norte 41 Noroeste 0 964.3 -1.8 20
2019-05-26 17:00:00 30.1 21 Norte 46 Norte 0 964.9 -1.9 19
2019-05-26 16:00:00 30.3 15 Norte 33 Norte 0 965.5 -1.7 21
2019-05-26 15:00:00 29.1 16 Norte 33 Norte 0 966.1 -1.5 23
2019-05-26 14:00:00 26.8 17 Nordeste 37 Norte 0 966.8 -0.9 25
2019-05-26 13:00:00 26 15 Norte 41 Norte 0 967.2 -0.7 28
2019-05-26 12:00:00 23.6 20 Nordeste -- -- 0 967.6 -0.4 32
2019-05-26 11:00:00 22.4 17 Nordeste 32 Norte 0 967.7 0.1 33
2019-05-26 10:00:00 20.3 19 Nordeste 31 Norte 0 967.9 0.6 34
2019-05-26 09:00:00 18.7 11 Norte 22 Norte 0 968 1 36
2019-05-26 08:00:00 14.2 3 Sudoeste 17 Norte 0 967.6 0.7 52
2019-05-26 07:00:00 12.4 4 Sudoeste 9 Sudoeste 0 967.3 0.4 59
2019-05-26 06:00:00 12.8 7 Sudoeste 10 Sudoeste 0 967 -0.1 57
2019-05-26 05:00:00 13.3 4 Sur 11 Sudoeste 0 966.9 -0.4 55
2019-05-26 04:00:00 14.3 3 Sur 10 Sudeste 0 966.9 -0.4 51
2019-05-26 03:00:00 15.3 6 Sudoeste 10 Sudoeste 0 967.1 -0.3 48
2019-05-26 02:00:00 17.1 6 Sur 11 Sudeste 0 967.3 0.6 40
2019-05-26 01:00:00 20 5 Norte 10 Norte 0 967.3 1.1 31
2019-05-26 00:00:00 21 8 Norte 28 Norte 0 967.4 1.8 29
2019-05-25 23:00:00 22.2 13 Norte 24 Norte 0 966.7 1.5 25
2019-05-25 22:00:00 23.6 14 Norte 31 Norte 0 966.2 0.9 24
2019-05-25 21:00:00 26.4 19 Norte 40 Norte 0 965.6 -0.1 20
2019-05-25 20:00:00 28.1 13 Norte 29 Norte 0 965.2 -0.7 20
2019-05-25 19:00:00 28 15 Norte 30 Norte 0 965.3 -1 20
2019-05-25 18:00:00 27.4 12 Norte 33 Norte 0 965.7 -1.2 19
2019-05-25 17:00:00 26.4 17 Norte -- -- 0 965.9 -1.3 20
2019-05-25 16:00:00 24.3 20 Nordeste 36 Norte 0 966.3 -1.1 24
2019-05-25 15:00:00 24.3 18 Nordeste 39 Nordeste 0 966.9 -0.6 29
2019-05-25 14:00:00 22.6 20 Norte 42 Nordeste 0 967.2 -0.4 30
2019-05-25 13:00:00 22.5 19 Norte -- -- 0 967.4 0 31
2019-05-25 12:00:00 20.6 13 Nordeste 31 Norte 0 967.5 0.4 36
2019-05-25 11:00:00 18.9 17 Nordeste 34 Este 0 967.6 0.8 42
2019-05-25 10:00:00 17.5 17 Nordeste 35 Nordeste 0 967.4 1.2 44
2019-05-25 09:00:00 15.6 10 Norte 21 Nordeste 0 967.1 1.5 51
2019-05-25 08:00:00 13.7 5 Noroeste 13 Noroeste 0 966.8 1.3 53
2019-05-25 07:00:00 13.5 5 Norte 20 Norte 0 966.2 1.1 52
2019-05-25 06:00:00 15 13 Norte 22 Norte 0 965.6 0.6 46
2019-05-25 05:00:00 16.3 6 Noroeste 25 Nordeste 0 965.5 0.7 43
2019-05-25 04:00:00 17.5 11 Norte 28 Nordeste 0 965.1 0.4 40
2019-05-25 03:00:00 17.5 9 Norte 25 Norte 0 965 0.5 36
2019-05-25 02:00:00 17 3 Norte 15 Nordeste 0 964.8 0.9 32
2019-05-25 01:00:00 17.1 5 Sudoeste 17 Noroeste 0 964.7 1.7 35
2019-05-25 00:00:00 19.2 7 Norte 15 Norte 0 964.5 2.2 26
2019-05-24 23:00:00 20.5 12 Norte 25 Noroeste 0 963.9 1.9 25
2019-05-24 22:00:00 22.5 17 Norte 37 Norte 0 963 0.8 21
2019-05-24 21:00:00 25.3 24 Norte 39 Norte 0 962.3 0.3 21
2019-05-24 20:00:00 26.1 17 Noroeste 35 Norte 0 962 -0.4 19
2019-05-24 19:00:00 27.3 21 Norte 38 Norte 0 962.2 -0.4 18
2019-05-24 18:00:00 27.3 22 Norte 45 Norte 0 962 -0.9 17
2019-05-24 17:00:00 27.3 21 Norte 44 Norte 0 962.4 -0.9 18
2019-05-24 16:00:00 26.4 19 Noroeste 45 Norte 0 962.6 -1.1 23
2019-05-24 15:00:00 25.6 20 Noroeste -- -- 0 962.9 -1.2 26
2019-05-24 14:00:00 24.5 22 Norte 42 Norte 0 963.3 -1.2 29
2019-05-24 13:00:00 23.2 19 Norte 46 Noroeste 0 963.7 -0.7 33
2019-05-24 12:00:00 20.4 22 Noroeste 40 Norte 0 964.1 -0.1 42
2019-05-24 11:00:00 18.6 17 Noroeste 44 Norte 0 964.5 0.6 43
2019-05-24 10:00:00 16.1 27 Noroeste 44 Noroeste 0 964.4 0.4 48
2019-05-24 09:00:00 14.5 18 Noroeste 34 Noroeste 0 964.2 0.2 55
2019-05-24 08:00:00 12.8 13 Oeste 30 Oeste 0 963.9 -0.3 65
2019-05-24 07:00:00 12.2 13 Oeste 25 Oeste 0 964 -0.7 67
2019-05-24 06:00:00 12.8 11 Oeste 25 Oeste 0 964 -1 63
2019-05-24 05:00:00 13.4 12 Oeste 21 Oeste 0 964.2 -1.2 61
2019-05-24 04:00:00 13.8 9 Oeste 18 Oeste 0 964.7 -0.6 62
2019-05-24 03:00:00 14 9 Oeste 21 Oeste 0 965 -0.7 62
2019-05-24 02:00:00 14.4 10 Oeste 18 Sudoeste 0 965.4 0.1 61
2019-05-24 01:00:00 14.9 10 Oeste 24 Oeste 0 965.3 0.3 57
2019-05-24 00:00:00 15.5 14 Oeste 30 Oeste 0 965.7 1 55
2019-05-23 23:00:00 17 15 Oeste 37 Oeste 0 965.3 0.4 63
2019-05-23 22:00:00 18.6 17 Oeste 35 Oeste 0 965 0.3 64
2019-05-23 21:00:00 20.3 21 Oeste 40 Noroeste 0 964.7 -0.1 56
2019-05-23 20:00:00 21.2 23 Oeste 40 Oeste 0 964.9 0.1 53
2019-05-23 19:00:00 23.3 23 Oeste 42 Sudoeste 0 964.7 -0.6 40
2019-05-23 18:00:00 25.2 23 Oeste 40 Oeste 0 964.8 -0.9 31
2019-05-23 17:00:00 27.3 19 Oeste 38 Oeste 0 964.8 -1.3 25
2019-05-23 16:00:00 26.9 17 Oeste 33 Oeste 0 965.3 -1.2 26
2019-05-23 15:00:00 25.7 16 Oeste 28 Noroeste 0 965.7 -0.9 33
2019-05-23 14:00:00 25.5 10 Oeste 24 Oeste 0 966.1 -0.4 35
2019-05-23 13:00:00 24.6 10 Oeste 24 Noroeste 0 966.5 0.4 37
2019-05-23 12:00:00 22.4 12 Noroeste 21 Noroeste 0 966.6 0.8 41
2019-05-23 11:00:00 20.7 9 Noroeste 18 Noroeste 0 966.5 1 47
2019-05-23 10:00:00 19 3 Sudoeste 10 Sur 0 966.1 1.1 54
2019-05-23 09:00:00 13.6 5 Sudoeste 8 Sur 0 965.8 0.8 71
2019-05-23 08:00:00 11.4 3 Sur 8 Sudoeste 0 965.5 0.3 76
2019-05-23 07:00:00 11.7 5 Sudoeste 10 Sudeste 0 965 -0.4 73
2019-05-23 06:00:00 12.5 5 Sudoeste 9 Sur 0 965 -0.6 71
2019-05-23 05:00:00 13.4 5 Sur 11 Sur 0 965.2 -0.6 68
2019-05-23 04:00:00 14.1 4 Sur 8 Sudoeste 0 965.4 -0.6 66
2019-05-23 03:00:00 15.3 5 Sur 10 Sudoeste 0 965.6 -0.4 62
2019-05-23 02:00:00 17 3 Sudoeste 12 Sudoeste 0 965.8 0 57
2019-05-23 01:00:00 18.1 6 Sudoeste 22 Sudoeste 0 966 1 58
2019-05-23 00:00:00 19 14 Oeste 27 Oeste 0 966 1.5 58
2019-05-22 23:00:00 20.2 14 Oeste 34 Oeste 0 965.8 1.7 57
2019-05-22 22:00:00 22.2 21 Oeste 37 Oeste 0 965 0.9 53
2019-05-22 21:00:00 26 13 Sudoeste 27 Oeste 0 964.5 0.2 32
2019-05-22 20:00:00 27.2 15 Sudoeste 26 Sudoeste 0 964.1 -0.4 29
2019-05-22 19:00:00 28.1 12 Oeste 27 Sudoeste 0 964.1 -0.8 28
2019-05-22 18:00:00 28.6 12 Sudoeste 26 Oeste 0 964.3 -1 27
2019-05-22 17:00:00 28 10 Sur 26 Sudoeste 0 964.5 -1 28
2019-05-22 16:00:00 27.6 7 Sudoeste 24 Sudoeste 0 964.9 -0.6 30
2019-05-22 15:00:00 26.4 7 Sur 20 Sudoeste 0 965.3 -0.3 31
2019-05-22 14:00:00 25.8 10 Sudoeste 24 Sudoeste 0 965.5 -0.1 33
2019-05-22 13:00:00 24.3 5 Sudoeste 16 Noroeste 0 965.5 0.3 39
2019-05-22 12:00:00 24.4 4 Sudoeste 13 Sur 0 965.6 0.8 38
2019-05-22 11:00:00 22.2 6 Norte 11 Norte 0 965.6 1.3 45
2019-05-22 10:00:00 19.7 4 Noroeste 8 Norte 0 965.2 1.2 56
2019-05-22 09:00:00 15.8 5 Sudoeste 8 Sur 0 964.8 0.8 70
2019-05-22 08:00:00 11.9 6 Sur 10 Sur 0 964.3 0.3 81
2019-05-22 07:00:00 11.6 6 Sudoeste 9 Sur 0 964 -0.2 82
2019-05-22 06:00:00 12.1 6 Sur 9 Sur 0 964 -0.4 82
2019-05-22 05:00:00 12.1 6 Sudoeste 9 Sur 0 964 -0.6 83
2019-05-22 04:00:00 13.1 6 Sudoeste 10 Sudoeste 0 964.2 -0.4 80
2019-05-22 03:00:00 14.6 7 Sur 13 Sudoeste 0 964.4 -0.2 76
2019-05-22 02:00:00 15.8 7 Sudoeste 15 Sudoeste 0 964.6 0.6 75
2019-05-22 01:00:00 16.9 8 Sudoeste 20 Oeste 0 964.6 1.4 72
2019-05-22 00:00:00 17.8 10 Oeste 26 Oeste 0 964.6 1.6 68
2019-05-21 23:00:00 19.2 14 Oeste 24 Oeste 0 964 1.4 61
2019-05-21 22:00:00 20.9 9 Oeste 23 Oeste 0 963.2 0.6 47
2019-05-21 21:00:00 23.2 13 Oeste 28 Oeste 0 963 0.3 40
2019-05-21 20:00:00 24.1 16 Oeste 31 Oeste 0 962.6 -0.3 38
2019-05-21 19:00:00 24.2 18 Oeste 30 Oeste 0 962.6 -0.5 38
2019-05-21 18:00:00 23.1 12 Oeste 25 Oeste 0 962.7 -0.7 39
2019-05-21 17:00:00 25.3 10 Sudoeste 25 Sudoeste 0 962.9 -0.8 31
2019-05-21 16:00:00 22.6 10 Noroeste -- -- 0 963.1 -0.7 35
2019-05-21 15:00:00 23 10 Noroeste 21 Oeste 0 963.4 -0.6 34
2019-05-21 14:00:00 22 8 Noroeste 27 Oeste 0 963.7 -0.2 37
2019-05-21 13:00:00 21.2 6 Noroeste 22 Noroeste 0 963.8 0 39
2019-05-21 12:00:00 19.1 10 Noroeste 23 Noroeste 0 964 0.4 43
2019-05-21 11:00:00 17.9 11 Noroeste 22 Oeste 0 963.9 0.5 48
2019-05-21 10:00:00 15.7 7 Noroeste 14 Noroeste 0 963.8 0.8 59
2019-05-21 09:00:00 12.9 5 Sudoeste 11 Sudoeste 0 963.6 0.7 65
2019-05-21 08:00:00 9.4 5 Sur 7 Sur 0 963.4 0.6 76
2019-05-21 07:00:00 9.8 6 Sudoeste 14 Sudoeste 0 963 0.2 75
2019-05-21 06:00:00 10.2 4 Sudoeste 13 Oeste 0 962.9 0 75
2019-05-21 05:00:00 11.5 6 Oeste 14 Oeste 0 962.8 -0.6 74
2019-05-21 04:00:00 11.6 5 Sudoeste 10 Sudoeste 0 962.8 -0.5 74
2019-05-21 03:00:00 12.6 5 Oeste 18 Oeste 0 962.9 -0.2 67
2019-05-21 02:00:00 13.3 9 Oeste 19 Oeste 0 963.4 0.7 67
2019-05-21 01:00:00 13.9 10 Oeste 30 Oeste 0 963.3 1.4 62
2019-05-21 00:00:00 15.1 17 Oeste 31 Oeste 0 963.1 1.7 54